createdAt,value
2023-02-01T00:00:27.812Z,23
2023-02-01T00:01:28.503Z,21
2023-02-01T00:02:27.855Z,24
2023-02-01T00:03:28.722Z,23
2023-02-01T00:04:28.204Z,23
2023-02-01T00:05:28.379Z,22
2023-02-01T00:06:27.850Z,23
2023-02-01T00:07:28.456Z,23
2023-02-01T00:08:27.975Z,23
2023-02-01T00:09:27.847Z,23
2023-02-01T00:10:27.964Z,24
2023-02-01T00:11:28.280Z,24
2023-02-01T00:12:27.808Z,24
2023-02-01T00:13:27.822Z,23
2023-02-01T00:14:28.395Z,23
2023-02-01T00:15:27.326Z,23
2023-02-01T00:16:27.808Z,23
2023-02-01T00:17:28.405Z,23
2023-02-01T00:18:28.511Z,23
2023-02-01T00:19:28.022Z,23
2023-02-01T00:20:28.095Z,23
2023-02-01T00:21:28.237Z,22
2023-02-01T00:22:27.846Z,23
2023-02-01T00:23:28.217Z,24
2023-02-01T00:24:28.578Z,23
2023-02-01T00:25:27.844Z,22
2023-02-01T00:26:28.565Z,23
2023-02-01T00:27:27.813Z,23
2023-02-01T00:28:28.386Z,23
2023-02-01T00:29:28.177Z,22
2023-02-01T00:30:28.188Z,23
2023-02-01T00:31:29.532Z,22
2023-02-01T00:32:28.196Z,22
2023-02-01T00:33:27.892Z,22
2023-02-01T00:34:28.235Z,22
2023-02-01T00:35:27.823Z,21
2023-02-01T00:36:28.078Z,21
2023-02-01T00:37:26.609Z,21
2023-02-01T00:38:27.922Z,22
2023-02-01T00:39:27.829Z,21
2023-02-01T00:40:27.864Z,21
2023-02-01T00:41:27.822Z,20
2023-02-01T00:42:27.838Z,21
2023-02-01T00:43:28.490Z,21
2023-02-01T00:44:28.601Z,21
2023-02-01T00:45:27.878Z,21
2023-02-01T00:46:28.413Z,20
2023-02-01T00:47:27.887Z,21
2023-02-01T00:48:27.895Z,21
2023-02-01T00:49:28.311Z,21
2023-02-01T00:50:28.040Z,21
2023-02-01T00:51:28.303Z,20
2023-02-01T00:52:27.921Z,22
2023-02-01T00:53:28.543Z,23
2023-02-01T00:54:27.893Z,21
2023-02-01T00:55:28.339Z,22
2023-02-01T00:56:28.041Z,21
2023-02-01T00:57:28.262Z,20
2023-02-01T00:58:28.370Z,21
2023-02-01T00:59:27.872Z,21
2023-02-01T01:00:28.610Z,20
2023-02-01T01:01:28.590Z,20
2023-02-01T01:02:27.825Z,19
2023-02-01T01:03:27.833Z,20
2023-02-01T01:04:28.110Z,18
2023-02-01T01:05:27.968Z,18
2023-02-01T01:06:27.913Z,19
2023-02-01T01:07:28.229Z,17
2023-02-01T01:08:29.040Z,17
2023-02-01T01:09:28.235Z,17
2023-02-01T01:10:28.154Z,16
2023-02-01T01:11:27.860Z,15
2023-02-01T01:12:27.856Z,16
2023-02-01T01:13:27.862Z,15
2023-02-01T01:14:28.162Z,14
2023-02-01T01:15:27.956Z,14
2023-02-01T01:16:28.717Z,14
2023-02-01T01:17:28.275Z,13
2023-02-01T01:18:28.489Z,12
2023-02-01T01:19:27.833Z,13
2023-02-01T01:20:27.794Z,13
2023-02-01T01:21:27.817Z,13
2023-02-01T01:22:27.823Z,11
2023-02-01T01:23:27.805Z,11
2023-02-01T01:24:28.292Z,11
2023-02-01T01:25:28.637Z,11
2023-02-01T01:26:28.413Z,10
2023-02-01T01:27:28.254Z,10
2023-02-01T01:28:27.854Z,9
2023-02-01T01:29:27.874Z,10
2023-02-01T01:30:28.384Z,9
2023-02-01T01:31:28.460Z,9
2023-02-01T01:32:28.179Z,8
2023-02-01T01:33:28.696Z,8
2023-02-01T01:34:28.418Z,8
2023-02-01T01:35:28.685Z,7
2023-02-01T01:36:28.397Z,8
2023-02-01T01:37:27.779Z,8
2023-02-01T01:38:28.353Z,8
2023-02-01T01:39:27.847Z,8
2023-02-01T01:40:28.230Z,7
2023-02-01T01:41:28.627Z,8
2023-02-01T01:42:28.478Z,7
2023-02-01T01:43:28.744Z,6
2023-02-01T01:44:28.084Z,7
2023-02-01T01:45:27.790Z,7
2023-02-01T01:46:28.018Z,6
2023-02-01T01:47:28.028Z,7
2023-02-01T01:48:28.670Z,7
2023-02-01T01:49:27.792Z,7
2023-02-01T01:50:27.792Z,6
2023-02-01T01:51:27.807Z,7
2023-02-01T01:52:27.793Z,6
2023-02-01T01:53:28.674Z,7
2023-02-01T01:54:27.819Z,6
2023-02-01T01:55:27.807Z,6
2023-02-01T01:56:27.825Z,7
2023-02-01T01:57:27.820Z,5
2023-02-01T01:58:28.549Z,6
2023-02-01T01:59:27.830Z,7
2023-02-01T02:00:28.612Z,5
2023-02-01T02:01:27.812Z,6
2023-02-01T02:02:27.781Z,6
2023-02-01T02:03:27.863Z,6
2023-02-01T02:04:27.904Z,6
2023-02-01T02:05:27.962Z,6
2023-02-01T02:06:27.868Z,6
2023-02-01T02:07:27.896Z,6
2023-02-01T02:08:28.203Z,6
2023-02-01T02:09:27.813Z,6
2023-02-01T02:10:27.800Z,6
2023-02-01T02:11:28.631Z,6
2023-02-01T02:12:28.227Z,6
2023-02-01T02:13:28.386Z,5
2023-02-01T02:14:28.038Z,6
2023-02-01T02:15:27.837Z,6
2023-02-01T02:16:28.669Z,6
2023-02-01T02:17:27.802Z,6
2023-02-01T02:18:28.688Z,6
2023-02-01T02:19:27.862Z,6
2023-02-01T02:20:28.135Z,6
2023-02-01T02:21:27.788Z,6
2023-02-01T02:22:28.504Z,5
2023-02-01T02:23:28.387Z,5
2023-02-01T02:24:28.221Z,6
2023-02-01T02:25:27.780Z,6
2023-02-01T02:26:28.362Z,6
2023-02-01T02:27:27.816Z,6
2023-02-01T02:28:28.041Z,6
2023-02-01T02:29:27.847Z,6
2023-02-01T02:30:28.255Z,7
2023-02-01T02:31:28.143Z,5
2023-02-01T02:32:27.978Z,6
2023-02-01T02:33:27.858Z,6
2023-02-01T02:34:28.581Z,5
2023-02-01T02:35:27.788Z,6
2023-02-01T02:36:28.459Z,6
2023-02-01T02:37:28.710Z,6
2023-02-01T02:38:27.786Z,5
2023-02-01T02:39:27.826Z,5
2023-02-01T02:40:27.912Z,6
2023-02-01T02:41:27.833Z,6
2023-02-01T02:42:27.821Z,6
2023-02-01T02:43:28.553Z,5
2023-02-01T02:44:27.864Z,6
2023-02-01T02:45:28.540Z,7
2023-02-01T02:46:28.340Z,6
2023-02-01T02:47:28.204Z,6
2023-02-01T02:48:28.253Z,6
2023-02-01T02:49:28.234Z,6
2023-02-01T02:50:28.015Z,6
2023-02-01T02:51:27.813Z,6
2023-02-01T02:52:28.213Z,7
2023-02-01T02:53:27.791Z,6
2023-02-01T02:54:27.798Z,5
2023-02-01T02:55:27.802Z,6
2023-02-01T02:56:27.779Z,6
2023-02-01T02:57:27.808Z,7
2023-02-01T02:58:28.840Z,6
2023-02-01T02:59:27.923Z,6
2023-02-01T03:00:27.781Z,7
2023-02-01T03:01:27.799Z,6
2023-02-01T03:02:27.981Z,6
2023-02-01T03:03:27.783Z,6
2023-02-01T03:04:27.832Z,6
2023-02-01T03:05:28.211Z,6
2023-02-01T03:06:28.496Z,7
2023-02-01T03:07:27.960Z,6
2023-02-01T03:08:28.484Z,7
2023-02-01T03:09:27.822Z,7
2023-02-01T03:10:28.001Z,6
2023-02-01T03:11:27.890Z,7
2023-02-01T03:12:28.260Z,6
2023-02-01T03:13:28.226Z,6
2023-02-01T03:14:27.829Z,6
2023-02-01T03:15:27.812Z,6
2023-02-01T03:16:28.009Z,6
2023-02-01T03:17:28.443Z,6
2023-02-01T03:18:27.786Z,7
2023-02-01T03:19:27.853Z,6
2023-02-01T03:20:28.560Z,6
2023-02-01T03:21:28.360Z,7
2023-02-01T03:22:28.242Z,7
2023-02-01T03:23:28.687Z,6
2023-02-01T03:24:27.985Z,7
2023-02-01T03:25:28.406Z,7
2023-02-01T03:26:27.848Z,6
2023-02-01T03:27:28.520Z,7
2023-02-01T03:28:27.812Z,7
2023-02-01T03:29:28.028Z,6
2023-02-01T03:30:28.320Z,6
2023-02-01T03:31:28.573Z,6
2023-02-01T03:32:28.150Z,6
2023-02-01T03:33:27.841Z,6
2023-02-01T03:34:27.856Z,7
2023-02-01T03:35:27.820Z,7
2023-02-01T03:36:28.165Z,7
2023-02-01T03:37:28.277Z,6
2023-02-01T03:38:28.370Z,7
2023-02-01T03:39:28.293Z,7
2023-02-01T03:40:26.589Z,7
2023-02-01T03:41:27.882Z,7
2023-02-01T03:42:27.901Z,7
2023-02-01T03:43:28.165Z,7
2023-02-01T03:44:27.803Z,7
2023-02-01T03:45:27.800Z,7
2023-02-01T03:46:28.056Z,7
2023-02-01T03:47:28.227Z,7
2023-02-01T03:48:27.789Z,7
2023-02-01T03:49:27.816Z,7
2023-02-01T03:50:28.103Z,7
2023-02-01T03:51:27.767Z,7
2023-02-01T03:52:28.366Z,6
2023-02-01T03:53:28.161Z,7
2023-02-01T03:54:27.855Z,7
2023-02-01T03:55:28.284Z,6
2023-02-01T03:56:28.082Z,7
2023-02-01T03:57:28.193Z,7
2023-02-01T03:58:27.792Z,7
2023-02-01T03:59:27.790Z,8
2023-02-01T04:00:27.789Z,7
2023-02-01T04:01:28.711Z,7
2023-02-01T04:02:27.887Z,7
2023-02-01T04:03:27.914Z,6
2023-02-01T04:04:28.235Z,7
2023-02-01T04:05:28.359Z,7
2023-02-01T04:06:28.655Z,7
2023-02-01T04:07:28.037Z,7
2023-02-01T04:08:27.779Z,6
2023-02-01T04:09:27.851Z,7
2023-02-01T04:10:28.175Z,6
2023-02-01T04:11:28.685Z,6
2023-02-01T04:12:28.416Z,7
2023-02-01T04:13:27.894Z,7
2023-02-01T04:14:28.398Z,6
2023-02-01T04:15:28.549Z,7
2023-02-01T04:16:27.833Z,7
2023-02-01T04:17:28.361Z,6
2023-02-01T04:18:28.340Z,7
2023-02-01T04:19:28.211Z,7
2023-02-01T04:20:28.195Z,7
2023-02-01T04:21:27.921Z,7
2023-02-01T04:22:28.352Z,7
2023-02-01T04:23:27.949Z,7
2023-02-01T04:24:28.147Z,7
2023-02-01T04:25:28.387Z,7
2023-02-01T04:26:28.763Z,7
2023-02-01T04:27:28.083Z,7
2023-02-01T04:28:28.612Z,6
2023-02-01T04:29:27.876Z,6
2023-02-01T04:30:28.121Z,6
2023-02-01T04:31:28.098Z,6
2023-02-01T04:32:28.721Z,6
2023-02-01T04:33:27.820Z,7
2023-02-01T04:34:27.810Z,6
2023-02-01T04:35:28.568Z,6
2023-02-01T04:36:28.128Z,7
2023-02-01T04:37:27.921Z,6
2023-02-01T04:38:28.189Z,6
2023-02-01T04:39:28.478Z,6
2023-02-01T04:40:28.454Z,8
2023-02-01T04:41:27.762Z,6
2023-02-01T04:42:28.409Z,6
2023-02-01T04:43:27.883Z,7
2023-02-01T04:44:27.775Z,6
2023-02-01T04:45:28.381Z,7
2023-02-01T04:46:27.832Z,6
2023-02-01T04:47:27.886Z,6
2023-02-01T04:48:28.385Z,6
2023-02-01T04:49:26.600Z,7
2023-02-01T04:50:28.071Z,6
2023-02-01T04:51:27.762Z,6
2023-02-01T04:52:28.013Z,7
2023-02-01T04:53:28.549Z,6
2023-02-01T04:54:27.783Z,6
2023-02-01T04:55:28.037Z,7
2023-02-01T04:56:27.927Z,8
2023-02-01T04:57:28.467Z,7
2023-02-01T04:58:27.886Z,7
2023-02-01T04:59:27.860Z,7
2023-02-01T05:00:27.774Z,6
2023-02-01T05:01:28.628Z,7
2023-02-01T05:02:27.885Z,7
2023-02-01T05:03:27.885Z,7
2023-02-01T05:04:28.225Z,7
2023-02-01T05:05:28.073Z,8
2023-02-01T05:06:28.360Z,7
2023-02-01T05:07:27.770Z,7
2023-02-01T05:08:28.771Z,7
2023-02-01T05:09:28.158Z,7
2023-02-01T05:10:27.988Z,9
2023-02-01T05:11:27.804Z,7
2023-02-01T05:12:28.045Z,7
2023-02-01T05:13:28.391Z,7
2023-02-01T05:14:28.068Z,7
2023-02-01T05:15:28.428Z,7
2023-02-01T05:16:28.592Z,8
2023-02-01T05:17:28.403Z,7
2023-02-01T05:18:27.748Z,7
2023-02-01T05:19:27.788Z,7
2023-02-01T05:20:28.186Z,7
2023-02-01T05:21:28.290Z,7
2023-02-01T05:22:27.823Z,7
2023-02-01T05:23:28.499Z,7
2023-02-01T05:24:27.816Z,6
2023-02-01T05:25:28.449Z,7
2023-02-01T05:26:28.600Z,7
2023-02-01T05:27:27.951Z,7
2023-02-01T05:28:27.767Z,7
2023-02-01T05:29:27.813Z,6
2023-02-01T05:30:28.783Z,7
2023-02-01T05:31:28.317Z,7
2023-02-01T05:32:27.893Z,7
2023-02-01T05:33:27.772Z,7
2023-02-01T05:34:27.784Z,7
2023-02-01T05:35:28.328Z,7
2023-02-01T05:36:28.314Z,6
2023-02-01T05:37:28.438Z,7
2023-02-01T05:38:28.238Z,7
2023-02-01T05:39:28.446Z,6
2023-02-01T05:40:28.092Z,7
2023-02-01T05:41:27.775Z,8
2023-02-01T05:42:27.872Z,7
2023-02-01T05:43:27.783Z,6
2023-02-01T05:44:27.957Z,6
2023-02-01T05:45:27.769Z,6
2023-02-01T05:46:27.920Z,7
2023-02-01T05:47:27.751Z,7
2023-02-01T05:48:27.992Z,6
2023-02-01T05:49:27.778Z,7
2023-02-01T05:50:28.283Z,7
2023-02-01T05:51:27.983Z,7
2023-02-01T05:52:28.409Z,6
2023-02-01T05:53:28.154Z,7
2023-02-01T05:54:28.166Z,8
2023-02-01T05:55:27.754Z,6
2023-02-01T05:56:28.456Z,6
2023-02-01T05:57:27.735Z,8
2023-02-01T05:59:27.812Z,8
2023-02-01T06:00:28.100Z,8
2023-02-01T06:01:28.243Z,9
2023-02-01T06:02:28.229Z,8
2023-02-01T06:03:28.489Z,9
2023-02-01T06:04:27.964Z,6
2023-02-01T06:05:28.042Z,8
2023-02-01T06:06:29.584Z,6
2023-02-01T06:07:29.773Z,8
2023-02-01T06:08:27.926Z,6
2023-02-01T06:09:27.742Z,7
2023-02-01T06:10:27.735Z,6
2023-02-01T06:11:32.752Z,5
2023-02-01T06:12:28.121Z,6
2023-02-01T06:13:28.658Z,5
2023-02-01T06:14:27.797Z,6
2023-02-01T06:15:27.754Z,6
2023-02-01T06:16:28.533Z,5
2023-02-01T06:17:28.360Z,6
2023-02-01T06:18:28.805Z,6
2023-02-01T06:19:28.490Z,5
2023-02-01T06:20:28.373Z,6
2023-02-01T06:21:27.938Z,7
2023-02-01T06:22:27.909Z,6
2023-02-01T06:23:27.804Z,6
2023-02-01T06:24:28.102Z,5
2023-02-01T06:25:28.425Z,6
2023-02-01T06:26:27.821Z,5
2023-02-01T06:27:27.759Z,5
2023-02-01T06:28:27.874Z,5
2023-02-01T06:29:28.364Z,5
2023-02-01T06:30:27.757Z,5
2023-02-01T06:31:27.989Z,5
2023-02-01T06:32:28.554Z,5
2023-02-01T06:33:28.324Z,5
2023-02-01T06:34:28.364Z,5
2023-02-01T06:35:27.779Z,5
2023-02-01T06:36:27.913Z,6
2023-02-01T06:37:28.095Z,6
2023-02-01T06:38:28.039Z,6
2023-02-01T06:39:27.948Z,8
2023-02-01T06:40:27.758Z,7
2023-02-01T06:41:29.584Z,7
2023-02-01T06:42:28.423Z,7
2023-02-01T06:43:27.804Z,5
2023-02-01T06:44:28.228Z,7
2023-02-01T06:45:28.338Z,6
2023-02-01T06:46:27.876Z,7
2023-02-01T06:47:28.180Z,6
2023-02-01T06:48:27.965Z,6
2023-02-01T06:49:28.072Z,8
2023-02-01T06:50:28.223Z,8
2023-02-01T06:51:28.312Z,7
2023-02-01T06:52:28.314Z,5
2023-02-01T06:53:28.416Z,7
2023-02-01T06:54:28.303Z,6
2023-02-01T06:55:27.957Z,6
2023-02-01T06:56:27.911Z,6
2023-02-01T06:57:27.800Z,9
2023-02-01T06:58:27.789Z,6
2023-02-01T06:59:27.831Z,6
2023-02-01T07:00:28.232Z,6
2023-02-01T07:01:27.762Z,6
2023-02-01T07:02:28.256Z,6
2023-02-01T07:03:28.373Z,6
2023-02-01T07:04:28.407Z,6
2023-02-01T07:05:27.795Z,6
2023-02-01T07:06:27.857Z,5
2023-02-01T07:07:27.741Z,6
2023-02-01T07:08:27.756Z,5
2023-02-01T07:09:28.012Z,4
2023-02-01T07:10:27.757Z,6
2023-02-01T07:11:28.143Z,5
2023-02-01T07:12:28.102Z,5
2023-02-01T07:13:28.748Z,5
2023-02-01T07:14:27.815Z,6
2023-02-01T07:15:28.041Z,5
2023-02-01T07:16:28.063Z,5
2023-02-01T07:17:27.750Z,6
2023-02-01T07:18:27.877Z,6
2023-02-01T07:19:27.734Z,5
2023-02-01T07:20:28.481Z,6
2023-02-01T07:21:27.737Z,5
2023-02-01T07:22:27.757Z,6
2023-02-01T07:23:27.828Z,5
2023-02-01T07:24:27.802Z,6
2023-02-01T07:25:28.298Z,6
2023-02-01T07:26:26.602Z,6
2023-02-01T07:27:28.015Z,6
2023-02-01T07:28:27.825Z,6
2023-02-01T07:29:28.111Z,6
2023-02-01T07:30:28.489Z,7
2023-02-01T07:31:27.839Z,6
2023-02-01T07:32:27.870Z,5
2023-02-01T07:33:28.236Z,6
2023-02-01T07:34:28.060Z,5
2023-02-01T07:35:28.447Z,7
2023-02-01T07:36:27.753Z,7
2023-02-01T07:37:27.773Z,7
2023-02-01T07:38:28.094Z,8
2023-02-01T07:39:27.739Z,8
2023-02-01T07:40:27.774Z,9
2023-02-01T07:41:27.882Z,6
2023-02-01T07:42:28.218Z,9
2023-02-01T07:43:27.757Z,8
2023-02-01T07:44:28.288Z,7
2023-02-01T07:45:28.466Z,6
2023-02-01T07:46:28.048Z,7
2023-02-01T07:47:27.798Z,6
2023-02-01T07:48:28.536Z,6
2023-02-01T07:49:27.783Z,7
2023-02-01T07:50:27.890Z,6
2023-02-01T07:51:28.672Z,6
2023-02-01T07:52:27.746Z,7
2023-02-01T07:53:27.762Z,6
2023-02-01T07:54:27.775Z,6
2023-02-01T07:55:27.738Z,6
2023-02-01T07:56:27.749Z,6
2023-02-01T07:57:27.745Z,7
2023-02-01T07:58:27.772Z,7
2023-02-01T07:59:27.754Z,5
2023-02-01T08:00:28.462Z,6
2023-02-01T08:01:28.673Z,7
2023-02-01T08:02:28.617Z,6
2023-02-01T08:03:27.761Z,6
2023-02-01T08:04:27.792Z,6
2023-02-01T08:05:27.820Z,5
2023-02-01T08:06:27.746Z,5
2023-02-01T08:07:28.478Z,6
2023-02-01T08:08:27.751Z,6
2023-02-01T08:09:27.781Z,6
2023-02-01T08:10:27.768Z,6
2023-02-01T08:11:27.754Z,6
2023-02-01T08:12:28.318Z,6
2023-02-01T08:13:28.341Z,6
2023-02-01T08:14:27.735Z,6
2023-02-01T08:15:27.782Z,6
2023-02-01T08:16:27.821Z,6
2023-02-01T08:17:27.818Z,6
2023-02-01T08:18:28.225Z,7
2023-02-01T08:19:27.850Z,7
2023-02-01T08:20:27.784Z,6
2023-02-01T08:21:27.829Z,6
2023-02-01T08:22:27.840Z,6
2023-02-01T08:23:27.722Z,5
2023-02-01T08:24:28.579Z,6
2023-02-01T08:25:27.823Z,5
2023-02-01T08:26:27.865Z,6
2023-02-01T08:27:28.153Z,6
2023-02-01T08:28:28.419Z,6
2023-02-01T08:29:27.813Z,6
2023-02-01T08:30:28.215Z,6
2023-02-01T08:31:29.754Z,6
2023-02-01T08:32:28.444Z,6
2023-02-01T08:33:27.817Z,6
2023-02-01T08:34:28.257Z,6
2023-02-01T08:35:42.389Z,6
2023-02-01T08:36:27.730Z,6
2023-02-01T08:37:28.719Z,5
2023-02-01T08:38:27.717Z,6
2023-02-01T08:39:28.889Z,6
2023-02-01T08:40:28.184Z,6
2023-02-01T08:41:27.952Z,6
2023-02-01T08:42:27.979Z,6
2023-02-01T08:43:28.493Z,5
2023-02-01T08:44:28.189Z,6
2023-02-01T08:45:28.629Z,5
2023-02-01T08:46:28.067Z,6
2023-02-01T08:47:28.627Z,6
2023-02-01T08:48:27.752Z,5
2023-02-01T08:49:28.765Z,6
2023-02-01T08:50:27.850Z,6
2023-02-01T08:51:27.840Z,6
2023-02-01T08:52:27.718Z,5
2023-02-01T08:53:28.051Z,6
2023-02-01T08:54:28.060Z,5
2023-02-01T08:55:27.055Z,6
2023-02-01T08:56:28.334Z,6
2023-02-01T08:57:28.156Z,6
2023-02-01T08:58:28.421Z,7
2023-02-01T08:59:30.351Z,8
2023-02-01T09:00:27.786Z,7
2023-02-01T09:01:28.300Z,6
2023-02-01T09:02:28.308Z,7
2023-02-01T09:03:28.406Z,6
2023-02-01T09:04:28.329Z,6
2023-02-01T09:05:35.052Z,7
2023-02-01T09:06:28.332Z,6
2023-02-01T09:07:27.757Z,6
2023-02-01T09:08:27.773Z,6
2023-02-01T09:09:27.859Z,6
2023-02-01T09:10:35.295Z,7
2023-02-01T09:11:27.791Z,6
2023-02-01T09:12:27.760Z,7
2023-02-01T09:13:27.766Z,7
2023-02-01T09:14:27.795Z,6
2023-02-01T09:15:28.244Z,6
2023-02-01T09:16:27.876Z,6
2023-02-01T09:18:27.800Z,7
2023-02-01T09:19:27.569Z,6
2023-02-01T09:20:27.964Z,6
2023-02-01T09:21:28.459Z,6
2023-02-01T09:22:28.429Z,6
2023-02-01T09:23:27.758Z,6
2023-02-01T09:24:27.759Z,6
2023-02-01T09:25:27.817Z,6
2023-02-01T09:26:32.644Z,6
2023-02-01T09:27:27.852Z,6
2023-02-01T09:28:28.580Z,5
2023-02-01T09:29:28.478Z,6
2023-02-01T09:30:30.364Z,6
2023-02-01T09:31:27.984Z,6
2023-02-01T09:32:27.842Z,6
2023-02-01T09:33:27.718Z,6
2023-02-01T09:34:28.230Z,6
2023-02-01T09:35:27.733Z,5
2023-02-01T09:36:30.123Z,5
2023-02-01T09:37:28.324Z,5
2023-02-01T09:38:28.278Z,5
2023-02-01T09:39:28.228Z,5
2023-02-01T09:40:27.954Z,6
2023-02-01T09:41:27.711Z,5
2023-02-01T09:42:30.277Z,6
2023-02-01T09:43:28.631Z,5
2023-02-01T09:44:35.628Z,5
2023-02-01T09:45:28.374Z,5
2023-02-01T09:46:28.461Z,5
2023-02-01T09:47:28.300Z,6
2023-02-01T09:48:30.161Z,5
2023-02-01T09:49:28.309Z,5
2023-02-01T09:50:27.969Z,5
2023-02-01T09:51:27.810Z,5
2023-02-01T09:52:27.811Z,5
2023-02-01T09:53:28.447Z,5
2023-02-01T09:54:30.011Z,5
2023-02-01T09:55:28.228Z,5
2023-02-01T09:56:27.916Z,5
2023-02-01T09:57:27.733Z,6
2023-02-01T09:58:27.747Z,5
2023-02-01T09:59:28.793Z,5
2023-02-01T10:00:28.509Z,5
2023-02-01T10:01:27.831Z,5
2023-02-01T10:02:28.384Z,6
2023-02-01T10:03:28.399Z,5
2023-02-01T10:04:27.795Z,5
2023-02-01T10:05:27.721Z,6
2023-02-01T10:06:30.173Z,6
2023-02-01T10:07:28.218Z,5
2023-02-01T10:09:27.978Z,5
2023-02-01T10:10:28.444Z,6
2023-02-01T10:11:27.705Z,6
2023-02-01T10:12:30.174Z,6
2023-02-01T10:13:28.245Z,6
2023-02-01T10:14:28.295Z,6
2023-02-01T10:15:27.746Z,6
2023-02-01T10:16:28.383Z,6
2023-02-01T10:17:27.762Z,6
2023-02-01T10:18:28.292Z,5
2023-02-01T10:19:27.790Z,6
2023-02-01T10:20:28.536Z,5
2023-02-01T10:21:27.765Z,6
2023-02-01T10:22:46.313Z,5
2023-02-01T10:23:34.116Z,6
2023-02-01T10:24:30.211Z,7
2023-02-01T10:25:27.801Z,9
2023-02-01T10:26:28.399Z,8
2023-02-01T10:27:28.100Z,6
2023-02-01T10:28:28.438Z,7
2023-02-01T10:29:27.811Z,5
2023-02-01T10:30:30.659Z,6
2023-02-01T10:31:28.070Z,5
2023-02-01T10:32:28.124Z,5
2023-02-01T10:33:27.716Z,5
2023-02-01T10:34:27.714Z,7
2023-02-01T10:35:28.379Z,7
2023-02-01T10:36:30.302Z,5
2023-02-01T10:37:28.396Z,6
2023-02-01T10:38:28.313Z,5
2023-02-01T10:39:28.360Z,5
2023-02-01T10:40:28.042Z,5
2023-02-01T10:41:27.702Z,6
2023-02-01T10:42:28.333Z,6
2023-02-01T10:43:27.836Z,6
2023-02-01T10:44:27.854Z,5
2023-02-01T10:45:27.993Z,5
2023-02-01T10:46:28.348Z,5
2023-02-01T10:47:27.860Z,6
2023-02-01T10:48:29.654Z,5
2023-02-01T10:49:28.215Z,5
2023-02-01T10:50:27.763Z,6
2023-02-01T10:51:28.498Z,6
2023-02-01T10:52:27.709Z,5
2023-02-01T10:53:28.527Z,5
2023-02-01T10:54:29.501Z,5
2023-02-01T10:55:27.699Z,6
2023-02-01T10:56:27.812Z,7
2023-02-01T10:57:28.114Z,6
2023-02-01T10:58:27.721Z,7
2023-02-01T10:59:27.844Z,6
2023-02-01T11:00:27.953Z,5
2023-02-01T11:01:27.729Z,6
2023-02-01T11:02:28.040Z,7
2023-02-01T11:03:27.765Z,6
2023-02-01T11:04:27.796Z,6
2023-02-01T11:05:27.708Z,6
2023-02-01T11:06:28.409Z,5
2023-02-01T11:07:28.699Z,6
2023-02-01T11:08:27.999Z,6
2023-02-01T11:09:27.796Z,6
2023-02-01T11:10:27.790Z,5
2023-02-01T11:11:27.805Z,6
2023-02-01T11:12:27.805Z,4
2023-02-01T11:13:28.324Z,5
2023-02-01T11:14:27.723Z,7
2023-02-01T11:15:28.640Z,6
2023-02-01T11:16:28.431Z,6
2023-02-01T11:17:27.731Z,7
2023-02-01T11:18:27.737Z,5
2023-02-01T11:19:27.744Z,6
2023-02-01T11:20:28.012Z,5
2023-02-01T11:21:28.165Z,7
2023-02-01T11:22:27.828Z,5
2023-02-01T11:23:28.371Z,6
2023-02-01T11:24:28.108Z,6
2023-02-01T11:25:27.976Z,6
2023-02-01T11:26:27.823Z,5
2023-02-01T11:27:28.320Z,6
2023-02-01T11:28:28.180Z,8
2023-02-01T11:29:28.360Z,6
2023-02-01T11:30:28.560Z,6
2023-02-01T11:31:27.766Z,5
2023-02-01T11:32:28.423Z,5
2023-02-01T11:33:28.155Z,4
2023-02-01T11:34:27.747Z,5
2023-02-01T11:35:28.288Z,6
2023-02-01T11:36:27.755Z,5
2023-02-01T11:37:28.381Z,5
2023-02-01T11:38:28.482Z,5
2023-02-01T11:39:28.626Z,5
2023-02-01T11:40:28.225Z,5
2023-02-01T11:41:28.254Z,4
2023-02-01T11:42:28.339Z,4
2023-02-01T11:43:27.705Z,5
2023-02-01T11:44:27.733Z,5
2023-02-01T11:45:27.706Z,5
2023-02-01T11:46:28.501Z,5
2023-02-01T11:47:27.769Z,5
2023-02-01T11:48:27.835Z,5
2023-02-01T11:49:27.872Z,5
2023-02-01T11:50:28.146Z,5
2023-02-01T11:51:27.728Z,5
2023-02-01T11:52:27.742Z,5
2023-02-01T11:53:28.849Z,5
2023-02-01T11:54:28.302Z,5
2023-02-01T11:55:27.772Z,6
2023-02-01T11:56:27.787Z,6
2023-02-01T11:57:27.807Z,8
2023-02-01T11:58:27.716Z,6
2023-02-01T11:59:28.378Z,6
2023-02-01T12:00:28.195Z,5
2023-02-01T12:01:28.021Z,5
2023-02-01T12:02:28.233Z,5
2023-02-01T12:03:28.579Z,5
2023-02-01T12:04:28.388Z,5
2023-02-01T12:05:27.685Z,5
2023-02-01T12:06:28.251Z,5
2023-02-01T12:07:28.162Z,4
2023-02-01T12:08:27.766Z,4
2023-02-01T12:09:27.931Z,5
2023-02-01T12:10:27.789Z,5
2023-02-01T12:11:27.786Z,5
2023-02-01T12:12:28.211Z,5
2023-02-01T12:13:27.791Z,5
2023-02-01T12:14:28.241Z,4
2023-02-01T12:15:27.731Z,5
2023-02-01T12:16:27.883Z,5
2023-02-01T12:17:27.732Z,4
2023-02-01T12:18:28.378Z,5
2023-02-01T12:19:27.769Z,4
2023-02-01T12:20:28.080Z,4
2023-02-01T12:21:27.764Z,5
2023-02-01T12:22:28.365Z,5
2023-02-01T12:23:27.756Z,5
2023-02-01T12:24:27.773Z,5
2023-02-01T12:25:28.581Z,5
2023-02-01T12:26:27.769Z,6
2023-02-01T12:27:27.699Z,6
2023-02-01T12:28:28.376Z,5
2023-02-01T12:29:28.247Z,5
2023-02-01T12:30:28.053Z,5
2023-02-01T12:31:28.363Z,5
2023-02-01T12:32:28.022Z,5
2023-02-01T12:33:27.711Z,6
2023-02-01T12:34:27.736Z,5
2023-02-01T12:35:27.694Z,5
2023-02-01T12:36:28.475Z,5
2023-02-01T12:37:27.686Z,5
2023-02-01T12:38:28.187Z,4
2023-02-01T12:39:28.329Z,5
2023-02-01T12:40:28.340Z,4
2023-02-01T12:41:28.417Z,4
2023-02-01T12:42:27.704Z,5
2023-02-01T12:43:28.207Z,5
2023-02-01T12:44:27.721Z,5
2023-02-01T12:45:27.905Z,5
2023-02-01T12:46:28.020Z,5
2023-02-01T12:47:27.819Z,5
2023-02-01T12:48:27.717Z,5
2023-02-01T12:49:27.967Z,5
2023-02-01T12:50:27.818Z,5
2023-02-01T12:51:28.355Z,5
2023-02-01T12:52:28.248Z,4
2023-02-01T12:53:27.740Z,5
2023-02-01T12:54:27.778Z,6
2023-02-01T12:55:28.066Z,5
2023-02-01T12:56:27.756Z,5
2023-02-01T12:57:27.735Z,4
2023-02-01T12:58:27.684Z,5
2023-02-01T12:59:27.786Z,5
2023-02-01T13:00:28.725Z,5
2023-02-01T13:01:27.864Z,5
2023-02-01T13:02:27.750Z,5
2023-02-01T13:03:27.681Z,4
2023-02-01T13:04:27.973Z,4
2023-02-01T13:05:27.677Z,4
2023-02-01T13:06:28.230Z,4
2023-02-01T13:07:28.049Z,4
2023-02-01T13:08:28.639Z,4
2023-02-01T13:09:26.531Z,5
2023-02-01T13:10:27.739Z,4
2023-02-01T13:11:27.852Z,4
2023-02-01T13:12:28.059Z,4
2023-02-01T13:13:28.189Z,4
2023-02-01T13:14:28.401Z,5
2023-02-01T13:15:27.796Z,5
2023-02-01T13:16:28.176Z,4
2023-02-01T13:17:27.665Z,4
2023-02-01T13:18:28.410Z,4
2023-02-01T13:19:28.731Z,4
2023-02-01T13:20:27.900Z,4
2023-02-01T13:21:28.734Z,4
2023-02-01T13:22:28.323Z,4
2023-02-01T13:23:27.725Z,4
2023-02-01T13:24:27.737Z,5
2023-02-01T13:25:28.256Z,4
2023-02-01T13:26:28.208Z,4
2023-02-01T13:27:27.754Z,5
2023-02-01T13:28:28.478Z,4
2023-02-01T13:29:28.035Z,4
2023-02-01T13:30:28.018Z,5
2023-02-01T13:31:27.997Z,5
2023-02-01T13:32:54.342Z,4
2023-02-01T13:33:53.157Z,4
2023-02-01T13:34:28.279Z,5
2023-02-01T13:35:28.275Z,4
2023-02-01T13:36:27.700Z,4
2023-02-01T13:37:28.565Z,5
2023-02-01T13:38:28.328Z,4
2023-02-01T13:39:28.154Z,4
2023-02-01T13:40:28.345Z,6
2023-02-01T13:41:27.952Z,5
2023-02-01T13:42:28.257Z,5
2023-02-01T13:43:27.663Z,5
2023-02-01T13:44:28.475Z,6
2023-02-01T13:45:28.382Z,6
2023-02-01T13:46:28.309Z,5
2023-02-01T13:47:28.594Z,4
2023-02-01T13:48:28.311Z,6
2023-02-01T13:49:28.437Z,5
2023-02-01T13:50:27.706Z,4
2023-02-01T13:51:27.713Z,4
2023-02-01T13:52:28.424Z,5
2023-02-01T13:53:28.537Z,5
2023-02-01T13:54:28.380Z,5
2023-02-01T13:55:28.252Z,5
2023-02-01T13:56:27.744Z,5
2023-02-01T13:57:27.667Z,5
2023-02-01T13:58:27.675Z,5
2023-02-01T13:59:27.778Z,4
2023-02-01T14:00:27.766Z,6
2023-02-01T14:01:28.062Z,6
2023-02-01T14:02:28.075Z,5
2023-02-01T14:03:27.679Z,5
2023-02-01T14:04:27.770Z,6
2023-02-01T14:05:28.152Z,5
2023-02-01T14:06:28.120Z,6
2023-02-01T14:07:27.809Z,6
2023-02-01T14:08:28.135Z,5
2023-02-01T14:09:27.737Z,5
2023-02-01T14:10:27.806Z,6
2023-02-01T14:11:28.285Z,4
2023-02-01T14:12:27.727Z,5
2023-02-01T14:13:27.847Z,4
2023-02-01T14:14:27.746Z,4
2023-02-01T14:15:28.513Z,6
2023-02-01T14:16:28.475Z,5
2023-02-01T14:17:28.306Z,5
2023-02-01T14:18:27.773Z,5
2023-02-01T14:19:27.698Z,6
2023-02-01T14:20:29.094Z,6
2023-02-01T14:21:27.702Z,5
2023-02-01T14:22:27.697Z,6
2023-02-01T14:23:28.162Z,5
2023-02-01T14:24:28.393Z,5
2023-02-01T14:25:28.618Z,5
2023-02-01T14:26:27.714Z,6
2023-02-01T14:27:27.672Z,5
2023-02-01T14:28:27.709Z,6
2023-02-01T14:29:28.441Z,6
2023-02-01T14:30:27.747Z,5
2023-02-01T14:31:27.849Z,4
2023-02-01T14:32:27.771Z,6
2023-02-01T14:33:28.289Z,5
2023-02-01T14:34:27.788Z,5
2023-02-01T14:35:28.192Z,5
2023-02-01T14:36:27.762Z,4
2023-02-01T14:37:28.312Z,6
2023-02-01T14:38:28.215Z,6
2023-02-01T14:39:27.691Z,5
2023-02-01T14:40:27.667Z,5
2023-02-01T14:41:27.927Z,6
2023-02-01T14:42:28.245Z,4
2023-02-01T14:43:33.441Z,4
2023-02-01T14:44:27.754Z,5
2023-02-01T14:45:28.543Z,4
2023-02-01T14:46:27.744Z,16